Time;durP1;ratioP1;P1;durP2;ratioP2;P2;SDS_P1;SDS_P2;PMS_P1;PMS_P2;Temp;Humidity;BMP_temperature;BMP_pressure;BME280_temperature;BME280_humidity;BME280_pressure;Samples;Min_cycle;Max_cycle;Signal;HPM_P1;HPM_P2
2023/01/30 00:02:32;;;;;;;0.00;0.00;;;;;;;-145.06;100.00;53908.59;10375431;28;20022;-80
2023/01/30 00:07:32;;;;;;;0.00;0.00;;;;;;;-145.06;100.00;53868.09;10361886;28;20037;-79
2023/01/30 00:12:33;;;;;;;0.00;0.00;;;;;;;-145.06;100.00;53892.38;10352743;28;20022;-80
2023/01/30 00:17:33;;;;;;;0.08;0.08;;;;;;;-145.06;100.00;53924.78;10326762;28;20030;-79
2023/01/30 00:22:34;;;;;;;0.00;0.00;;;;;;;-145.06;100.00;53896.44;10355249;28;20029;-80
2023/01/30 00:27:34;;;;;;;0.00;0.00;;;;;;;-145.06;100.00;53908.59;10345665;28;20022;-80
2023/01/30 00:32:34;;;;;;;0.00;0.00;;;;;;;-145.06;100.00;53868.09;10365923;28;20018;-80
2023/01/30 00:37:35;;;;;;;0.00;0.00;;;;;;;-145.06;100.00;53894.41;10327162;28;20379;-80
2023/01/30 00:47:54;;;;;;;0.00;0.00;;;;;;;-145.06;100.00;53864.03;10349254;28;20022;-80
2023/01/30 00:52:54;;;;;;;0.00;0.00;;;;;;;-145.06;100.00;53829.59;10359175;28;20440;-80
2023/01/30 00:57:55;;;;;;;0.00;0.00;;;;;;;-145.06;100.00;53890.38;10368039;28;20048;-80
2023/01/30 01:02:55;;;;;;;0.00;0.00;;;;;;;-145.06;100.00;53906.56;10353401;28;20499;-80
2023/01/30 01:07:55;;;;;;;0.00;0.00;;;;;;;-145.06;100.00;53859.97;10351852;28;20033;-80
2023/01/30 01:12:56;;;;;;;0.00;0.00;;;;;;;-145.06;100.00;53866.06;10336031;28;20122;-80
2023/01/30 01:17:56;;;;;;;0.00;0.00;;;;;;;-145.06;100.00;53886.31;10347551;28;20026;-80
2023/01/30 01:22:56;;;;;;;0.00;0.00;;;;;;;-145.06;100.00;53904.53;10324117;28;20019;-80
2023/01/30 01:27:57;;;;;;;0.00;0.00;;;;;;;-145.06;100.00;53886.31;10336300;28;20268;-81
2023/01/30 01:32:57;;;;;;;0.00;0.00;;;;;;;-145.06;100.00;53872.13;10335058;28;20065;-80
2023/01/30 01:37:57;;;;;;;0.00;0.00;;;;;;;-145.06;100.00;53880.22;10335956;28;20281;-81
2023/01/30 01:42:58;;;;;;;0.00;0.00;;;;;;;-145.06;100.00;53924.78;10351702;28;20085;-81
2023/01/30 01:48:11;;;;;;;0.00;0.00;;;;;;;-145.06;100.00;53866.06;10348423;28;20014;-81
2023/01/30 01:53:14;;;;;;;0.00;0.00;;;;;;;-145.06;100.00;53890.38;10350322;28;20120;-81
2023/01/30 01:58:21;;;;;;;0.00;0.00;;;;;;;-145.06;100.00;53880.22;10358972;28;20065;-81
2023/01/30 02:03:24;;;;;;;0.00;0.00;;;;;;;-145.06;100.00;53914.66;10380450;28;20030;-81
2023/01/30 02:08:32;;;;;;;0.00;0.00;;;;;;;-145.06;100.00;53906.56;10375632;28;20029;-81
2023/01/30 02:13:32;;;;;;;0.00;0.00;;;;;;;-145.06;100.00;53872.13;10338982;28;20029;-81
2023/01/30 02:18:35;;;;;;;0.00;0.00;;;;;;;-145.06;100.00;53947.06;10358883;28;20081;-80
2023/01/30 02:24:00;;;;;;;0.00;0.00;;;;;;;-145.06;100.00;53900.50;10349546;28;20267;-80
2023/01/30 02:29:09;;;;;;;0.00;0.00;;;;;;;-145.06;100.00;53872.13;10381198;28;20769;-78
2023/01/30 02:34:24;;;;;;;0.00;0.00;;;;;;;-145.06;100.00;53868.09;10381718;28;20022;-78
2023/01/30 02:39:52;;;;;;;0.00;0.00;;;;;;;-145.06;100.00;53882.25;10356057;28;20032;-80
2023/01/30 02:45:14;;;;;;;0.00;0.00;;;;;;;-145.06;100.00;53902.50;10381127;28;20036;-80
2023/01/30 02:50:21;;;;;;;0.00;0.00;;;;;;;-145.06;100.00;53912.63;10357020;28;20535;-80
2023/01/30 02:55:24;;;;;;;0.00;0.00;;;;;;;-145.06;100.00;53892.38;10359375;28;20116;-79
2023/01/30 03:00:45;;;;;;;0.00;0.00;;;;;;;-145.06;100.00;53900.50;10374152;28;20113;-80
2023/01/30 03:06:13;;;;;;;0.00;0.00;;;;;;;-145.06;100.00;53928.84;10355173;28;20105;-79
2023/01/30 03:11:14;;;;;;;0.00;0.00;;;;;;;-145.06;100.00;53898.47;10346785;28;20504;-80
2023/01/30 03:16:27;;;;;;;0.00;0.00;;;;;;;-145.06;100.00;53914.66;10377164;23;20042;-80
2023/01/30 03:21:27;;;;;;;0.00;0.00;;;;;;;-145.06;100.00;53876.19;10372528;28;20059;-81
2023/01/30 03:26:31;;;;;;;0.03;0.03;;;;;;;-145.06;100.00;53884.28;10345841;28;20080;-78
2023/01/30 03:31:32;;;;;;;0.00;0.00;;;;;;;-145.06;100.00;53853.91;10348447;28;20266;-80
2023/01/30 03:36:32;;;;;;;0.00;0.00;;;;;;;-145.06;100.00;53876.19;10347022;28;20030;-81
2023/01/30 03:41:33;;;;;;;0.00;0.00;;;;;;;-145.06;100.00;53894.41;10363298;28;20262;-78
2023/01/30 03:46:33;;;;;;;0.00;0.00;;;;;;;-145.06;100.00;53912.63;10354763;28;20306;-82
2023/01/30 03:51:33;;;;;;;0.00;0.00;;;;;;;-145.06;100.00;53896.44;10348111;28;20302;-81
2023/01/30 03:56:34;;;;;;;0.00;0.00;;;;;;;-145.06;100.00;53876.19;10339503;28;20221;-82
2023/01/30 04:01:34;;;;;;;0.00;0.00;;;;;;;-145.06;100.00;53894.41;10316165;28;20031;-80
2023/01/30 04:06:34;;;;;;;0.00;0.00;;;;;;;-145.06;100.00;53884.28;10305822;28;20256;-81
2023/01/30 04:11:35;;;;;;;0.00;0.00;;;;;;;-145.06;100.00;53908.59;10331107;28;20090;-81
2023/01/30 04:16:35;;;;;;;0.00;0.00;;;;;;;-145.06;100.00;53910.63;10312686;28;20045;-80
2023/01/30 04:21:35;;;;;;;0.00;0.00;;;;;;;-145.06;100.00;53862.00;10349280;28;20042;-80
2023/01/30 04:26:36;;;;;;;0.10;0.10;;;;;;;-145.06;100.00;53884.28;10302732;28;20018;-82
2023/01/30 04:31:36;;;;;;;0.00;0.00;;;;;;;-145.06;100.00;53912.63;10304028;28;20029;-80
2023/01/30 04:36:36;;;;;;;0.00;0.00;;;;;;;-145.06;100.00;53892.38;10329100;28;20501;-81
2023/01/30 04:41:37;;;;;;;0.00;0.00;;;;;;;-145.06;100.00;53870.09;10341040;28;20050;-81
2023/01/30 04:46:37;;;;;;;0.00;0.00;;;;;;;-145.06;100.00;53936.94;10353840;28;20045;-81
2023/01/30 04:51:37;;;;;;;0.00;0.00;;;;;;;-145.06;100.00;53872.13;10342635;28;20105;-82
2023/01/30 04:56:38;;;;;;;0.00;0.00;;;;;;;-145.06;100.00;53866.06;10321217;28;20025;-81
2023/01/30 05:01:38;;;;;;;0.00;0.00;;;;;;;-145.06;100.00;53884.28;10313968;28;20521;-82
2023/01/30 05:06:38;;;;;;;0.00;0.00;;;;;;;-145.06;100.00;53876.19;10332267;28;20029;-80
2023/01/30 05:11:38;;;;;;;0.00;0.00;;;;;;;-145.06;100.00;53896.44;10321151;28;20319;-82
2023/01/30 05:16:39;;;;;;;0.00;0.00;;;;;;;-145.06;100.00;53918.72;10350942;28;20048;-81
2023/01/30 05:21:39;;;;;;;0.00;0.00;;;;;;;-145.06;100.00;53906.56;10339120;28;20035;-83
2023/01/30 05:26:39;;;;;;;0.00;0.00;;;;;;;-145.06;100.00;53890.38;10361742;28;20172;-82
2023/01/30 05:31:40;;;;;;;0.00;0.00;;;;;;;-145.06;100.00;53831.63;10367150;28;20026;-80
2023/01/30 05:36:40;;;;;;;0.00;0.00;;;;;;;-145.06;100.00;53896.44;10349043;28;20026;-81
2023/01/30 05:41:40;;;;;;;0.00;0.00;;;;;;;-145.06;100.00;53888.34;10349089;28;20034;-82
2023/01/30 05:46:41;;;;;;;0.00;0.00;;;;;;;-145.06;100.00;53900.50;10348560;28;20695;-80
2023/01/30 05:51:41;;;;;;;0.00;0.00;;;;;;;-145.06;100.00;53872.13;10367785;28;20018;-81
2023/01/30 05:56:41;;;;;;;0.00;0.00;;;;;;;-145.06;100.00;53900.50;10359122;28;20082;-82
2023/01/30 06:01:42;;;;;;;0.00;0.00;;;;;;;-145.06;100.00;53890.38;10321519;28;20054;-82
2023/01/30 06:06:42;;;;;;;0.00;0.00;;;;;;;-145.06;100.00;53866.06;10342589;28;20258;-80
2023/01/30 06:11:42;;;;;;;0.00;0.00;;;;;;;-145.06;100.00;53864.03;10350055;28;20022;-81
2023/01/30 06:16:42;;;;;;;0.00;0.00;;;;;;;-145.06;100.00;53896.44;10353242;28;20030;-81
2023/01/30 06:21:43;;;;;;;0.00;0.00;;;;;;;-145.06;100.00;53868.09;10348265;28;20022;-81
2023/01/30 06:26:43;;;;;;;0.00;0.00;;;;;;;-145.06;100.00;53900.50;10336349;28;20018;-80
2023/01/30 06:31:43;;;;;;;0.00;0.00;;;;;;;-145.06;100.00;53876.19;10328194;28;20030;-79
2023/01/30 06:36:43;;;;;;;0.00;0.00;;;;;;;-145.06;100.00;53916.69;10328027;28;20045;-82
2023/01/30 06:41:44;;;;;;;0.00;0.00;;;;;;;-145.06;100.00;53906.56;10361577;28;20106;-81
2023/01/30 06:46:44;;;;;;;0.00;0.00;;;;;;;-145.06;100.00;53884.28;10328750;28;20014;-81
2023/01/30 06:51:44;;;;;;;0.00;0.00;;;;;;;-145.06;100.00;53902.50;10362823;28;20026;-81
2023/01/30 06:56:45;;;;;;;0.00;0.00;;;;;;;-145.06;100.00;53900.50;10365761;28;20776;-80
2023/01/30 07:01:45;;;;;;;0.00;0.00;;;;;;;-145.06;100.00;53864.03;10344964;28;20105;-80
2023/01/30 07:06:45;;;;;;;0.00;0.00;;;;;;;-145.06;100.00;53874.16;10331892;28;20021;-82
2023/01/30 07:11:47;;;;;;;0.00;0.00;;;;;;;-145.06;100.00;53916.69;10344850;28;20026;-82
2023/01/30 07:16:47;;;;;;;0.00;0.00;;;;;;;-145.06;100.00;53878.22;10361437;28;20030;-79
2023/01/30 07:21:48;;;;;;;0.00;0.00;;;;;;;-145.06;100.00;53910.63;10364990;28;20041;-80
2023/01/30 07:26:48;;;;;;;0.00;0.00;;;;;;;-145.06;100.00;53906.56;10318562;28;20027;-79
2023/01/30 07:31:48;;;;;;;0.00;0.00;;;;;;;-145.06;100.00;53896.44;10328017;28;20030;-79
2023/01/30 07:36:48;;;;;;;0.00;0.00;;;;;;;-145.06;100.00;53906.56;10334416;28;20046;-78
2023/01/30 07:41:49;;;;;;;0.00;0.00;;;;;;;-145.06;100.00;53880.22;10340471;28;20026;-79
2023/01/30 07:46:49;;;;;;;0.00;0.00;;;;;;;-145.06;100.00;53892.38;10327004;28;20033;-80
2023/01/30 07:51:49;;;;;;;0.00;0.00;;;;;;;-145.06;100.00;53882.25;10349006;28;20270;-80
2023/01/30 07:56:50;;;;;;;0.00;0.00;;;;;;;-145.06;100.00;53904.53;10345049;28;20023;-80
2023/01/30 08:01:50;;;;;;;0.00;0.00;;;;;;;-145.06;100.00;53894.41;10358440;28;20045;-79
2023/01/30 08:06:50;;;;;;;0.00;0.00;;;;;;;-145.06;100.00;53904.53;10325749;28;20466;-79
2023/01/30 08:11:51;;;;;;;0.00;0.00;;;;;;;-145.06;100.00;53890.38;10345806;28;20028;-82
2023/01/30 08:16:51;;;;;;;0.00;0.00;;;;;;;-145.06;100.00;53864.03;10335865;28;20053;-80
2023/01/30 08:21:51;;;;;;;0.00;0.00;;;;;;;-145.06;100.00;53900.50;10327117;28;20110;-82
2023/01/30 08:26:52;;;;;;;0.00;0.00;;;;;;;-145.06;100.00;53866.06;10334368;28;20027;-80
2023/01/30 08:31:56;;;;;;;0.00;0.00;;;;;;;-145.06;100.00;53825.56;10314429;28;20099;-80
2023/01/30 08:36:56;;;;;;;0.00;0.00;;;;;;;-145.06;100.00;53862.00;10364059;28;20069;-81
2023/01/30 08:41:57;;;;;;;0.00;0.00;;;;;;;-145.06;100.00;53872.13;10348139;28;20049;-82
2023/01/30 08:46:57;;;;;;;0.00;0.00;;;;;;;-145.06;100.00;53855.94;10360239;28;20133;-82
2023/01/30 08:51:57;;;;;;;0.03;0.03;;;;;;;-145.06;100.00;53898.47;10346350;28;20022;-80
2023/01/30 08:56:58;;;;;;;0.00;0.00;;;;;;;-145.06;100.00;53845.81;10344774;28;20285;-80
2023/01/30 09:01:58;;;;;;;0.00;0.00;;;;;;;-145.06;100.00;53908.59;10314764;28;20022;-81
2023/01/30 09:06:58;;;;;;;0.00;0.00;;;;;;;-145.06;100.00;53890.38;10320788;28;20069;-82
2023/01/30 09:11:59;;;;;;;0.00;0.00;;;;;;;-145.06;100.00;53862.00;10347019;28;20548;-82
2023/01/30 09:16:59;;;;;;;0.00;0.00;;;;;;;-145.06;100.00;53851.88;10367324;22;20126;-80
2023/01/30 09:21:59;;;;;;;0.00;0.00;;;;;;;-145.06;100.00;53803.28;10358900;28;20270;-80
2023/01/30 09:26:59;;;;;;;0.00;0.00;;;;;;;-145.06;100.00;53849.84;10343594;28;20018;-80
2023/01/30 09:32:00;;;;;;;0.00;0.00;;;;;;;-145.06;100.00;53774.94;10341177;28;20030;-80
2023/01/30 09:37:01;;;;;;;0.00;0.00;;;;;;;-145.06;100.00;53902.50;10328022;28;21524;-80
2023/01/30 09:42:04;;;;;;;0.00;0.00;;;;;;;-145.06;100.00;53906.56;10343362;28;20355;-79
2023/01/30 09:47:13;;;;;;;0.00;0.00;;;;;;;-145.06;100.00;53868.09;10331312;28;20085;-78
2023/01/30 09:52:13;;;;;;;0.00;0.00;;;;;;;-145.06;100.00;53904.53;10340944;28;20030;-80
2023/01/30 09:57:22;;;;;;;0.00;0.00;;;;;;;-145.06;100.00;53904.53;10343161;28;20109;-82
2023/01/30 10:02:38;;;;;;;0.00;0.00;;;;;;;-145.06;100.00;53868.09;10364563;28;20054;-81
2023/01/30 10:07:49;;;;;;;0.00;0.00;;;;;;;-145.06;100.00;53890.38;10347934;28;20089;-80
2023/01/30 10:13:20;;;;;;;0.00;0.00;;;;;;;-145.06;100.00;53880.22;10354277;28;20029;-81
2023/01/30 10:18:23;;;;;;;0.00;0.00;;;;;;;-145.06;100.00;53894.41;10348601;28;20044;-79
2023/01/30 10:23:30;;;;;;;0.10;0.10;;;;;;;-145.06;100.00;53843.78;10346454;28;20031;-80
2023/01/30 10:28:54;;;;;;;0.00;0.00;;;;;;;-145.06;100.00;53847.84;10337579;28;20019;-79
2023/01/30 10:34:03;;;;;;;0.00;0.00;;;;;;;-145.06;100.00;53904.53;10374649;28;20069;-79
2023/01/30 10:39:17;;;;;;;0.00;0.00;;;;;;;-145.06;100.00;53876.19;10369362;28;20396;-79
2023/01/30 10:44:22;;;;;;;0.00;0.00;;;;;;;-145.06;100.00;53888.34;10344571;28;20033;-80
2023/01/30 10:49:43;;;;;;;0.00;0.00;;;;;;;-145.06;100.00;53906.56;10365739;28;20041;-80
2023/01/30 10:55:42;;;;;;;0.00;0.00;;;;;;;-145.06;100.00;53900.50;10362096;28;20022;-81
2023/01/30 11:00:48;;;;;;;0.00;0.00;;;;;;;-145.06;100.00;53908.59;10264875;28;20097;-80
2023/01/30 11:05:58;;;;;;;0.00;0.00;;;;;;;-145.06;100.00;53892.38;10312239;28;20196;-81
2023/01/30 11:10:59;;;;;;;0.00;0.00;;;;;;;-145.06;100.00;53833.66;10358264;28;20405;-80
2023/01/30 11:16:08;;;;;;;0.00;0.00;;;;;;;-145.06;100.00;53906.56;10363655;28;20029;-79
2023/01/30 11:21:18;;;;;;;0.00;0.00;;;;;;;-145.06;100.00;53908.59;10340446;28;20484;-79
2023/01/30 11:26:29;;;;;;;0.00;0.00;;;;;;;-145.06;100.00;53876.19;10339179;28;20034;-79
2023/01/30 11:31:29;;;;;;;0.00;0.00;;;;;;;-145.06;100.00;53837.72;10357084;28;20080;-81
2023/01/30 11:36:32;;;;;;;0.00;0.00;;;;;;;-145.06;100.00;53866.06;10350693;28;20449;-80
2023/01/30 11:41:32;;;;;;;0.00;0.00;;;;;;;-145.06;100.00;53866.06;10358585;28;20451;-80
2023/01/30 11:46:36;;;;;;;0.00;0.00;;;;;;;-145.06;100.00;53864.03;10359113;28;20021;-81
2023/01/30 11:51:37;;;;;;;0.00;0.00;;;;;;;-145.06;100.00;53864.03;10357813;28;20044;-80
2023/01/30 11:56:44;;;;;;;0.00;0.00;;;;;;;-145.06;100.00;53882.25;10341667;28;20046;-81
2023/01/30 12:01:45;;;;;;;0.00;0.00;;;;;;;-145.06;100.00;53876.19;10349444;28;20120;-83
2023/01/30 12:06:45;;;;;;;0.00;0.00;;;;;;;-145.06;100.00;53900.50;10354688;28;20041;-80
2023/01/30 12:11:45;;;;;;;0.00;0.00;;;;;;;-145.06;100.00;53882.25;10345119;28;20018;-81
2023/01/30 12:16:57;;;;;;;0.00;0.00;;;;;;;-145.06;100.00;53872.13;10335172;28;20376;-77
2023/01/30 12:22:10;;;;;;;0.00;0.00;;;;;;;-145.06;100.00;53872.13;10353926;28;20034;-80
2023/01/30 12:27:47;;;;;;;0.10;0.10;;;;;;;-145.06;100.00;53866.06;10320710;28;20018;-81
2023/01/30 12:32:48;;;;;;;0.00;0.00;;;;;;;-145.06;100.00;53866.06;10365881;28;20044;-80
2023/01/30 12:38:16;;;;;;;0.00;0.00;;;;;;;-145.06;100.00;53829.59;10330439;28;20436;-79
2023/01/30 12:43:42;;;;;;;0.00;0.00;;;;;;;-145.06;100.00;53843.78;10336012;28;20402;-80
2023/01/30 12:49:07;;;;;;;0.00;0.00;;;;;;;-145.06;100.00;53845.81;10346731;28;20124;-82
2023/01/30 12:54:32;;;;;;;0.00;0.00;;;;;;;-145.06;100.00;53886.31;10329466;28;20065;-81
2023/01/30 12:59:47;;;;;;;0.00;0.00;;;;;;;-145.06;100.00;53880.22;10372797;28;20096;-82
2023/01/30 13:05:00;;;;;;;0.00;0.00;;;;;;;-145.06;100.00;53845.81;10348423;28;20022;-81
2023/01/30 13:10:38;;;;;;;0.00;0.00;;;;;;;-145.06;100.00;53847.84;10340312;28;20026;-81
2023/01/30 13:15:47;;;;;;;0.00;0.00;;;;;;;-145.06;100.00;53868.09;10338358;28;20434;-80
2023/01/30 13:20:58;;;;;;;0.00;0.00;;;;;;;-145.06;100.00;53855.94;10353325;28;20072;-81
2023/01/30 13:26:10;;;;;;;0.00;0.00;;;;;;;-145.06;100.00;53888.34;10367730;28;20030;-81
2023/01/30 13:31:15;;;;;;;0.00;0.00;;;;;;;-145.06;100.00;53831.63;10349199;28;20021;-80
2023/01/30 13:36:27;;;;;;;0.00;0.00;;;;;;;-145.06;100.00;53896.44;10334071;28;20026;-80
2023/01/30 13:41:33;;;;;;;0.00;0.00;;;;;;;-145.06;100.00;53855.94;10351397;28;20024;-79
2023/01/30 13:46:37;;;;;;;0.00;0.00;;;;;;;-145.06;100.00;53837.72;10364771;28;20057;-80
2023/01/30 13:51:37;;;;;;;0.00;0.00;;;;;;;-145.06;100.00;53872.13;10340433;28;20385;-81
2023/01/30 13:56:47;;;;;;;0.10;0.10;;;;;;;-145.06;100.00;53864.03;10343333;28;20034;-81
2023/01/30 14:02:03;;;;;;;0.00;0.00;;;;;;;-145.06;100.00;53823.53;10368008;28;20096;-81
2023/01/30 14:07:22;;;;;;;0.00;0.00;;;;;;;-145.06;100.00;53831.63;10338493;28;20491;-81
2023/01/30 14:12:24;;;;;;;0.00;0.00;;;;;;;-145.06;100.00;53853.91;10344980;28;20034;-80
2023/01/30 14:17:25;;;;;;;0.00;0.00;;;;;;;-145.06;100.00;53849.84;10353903;28;20040;-81
2023/01/30 14:22:37;;;;;;;0.10;0.10;;;;;;;-145.06;100.00;53904.53;10338683;28;20053;-81
2023/01/30 14:27:38;;;;;;;0.10;0.10;;;;;;;-145.06;100.00;53837.72;10345309;28;20022;-81
2023/01/30 14:32:54;;;;;;;0.00;0.00;;;;;;;-145.06;100.00;53843.78;10356939;28;20017;-81
2023/01/30 14:38:16;;;;;;;0.10;0.10;;;;;;;-145.06;100.00;53849.84;10368879;28;20639;-82
2023/01/30 14:43:35;;;;;;;0.00;0.00;;;;;;;-145.06;100.00;53888.34;10339798;28;20030;-82
2023/01/30 14:49:03;;;;;;;0.00;0.00;;;;;;;-145.06;100.00;53880.22;10356265;28;20033;-81
2023/01/30 14:54:21;;;;;;;0.10;0.10;;;;;;;-145.06;100.00;53864.03;10368808;28;20373;-82
2023/01/30 14:59:38;;;;;;;0.00;0.00;;;;;;;-145.06;100.00;53847.84;10351630;28;20053;-82
2023/01/30 15:05:02;;;;;;;0.00;0.00;;;;;;;-145.06;100.00;53884.28;10371354;28;20030;-81
2023/01/30 15:10:18;;;;;;;0.00;0.00;;;;;;;-145.06;100.00;53823.53;10361245;28;20942;-81
2023/01/30 15:15:45;;;;;;;0.00;0.00;;;;;;;-145.06;100.00;53878.22;10376479;23;20145;-85
2023/01/30 15:20:58;;;;;;;0.00;0.00;;;;;;;-145.06;100.00;53849.84;10380395;28;20127;-84
2023/01/30 15:26:17;;;;;;;0.00;0.00;;;;;;;-145.06;100.00;53855.94;10369915;28;20022;-84
2023/01/30 15:31:21;;;;;;;0.00;0.00;;;;;;;-145.06;100.00;53853.91;10380476;28;20477;-85
2023/01/30 15:36:31;;;;;;;0.00;0.00;;;;;;;-145.06;100.00;53868.09;10371291;28;20501;-85
2023/01/30 15:41:37;;;;;;;0.00;0.00;;;;;;;-145.06;100.00;53831.63;10349082;28;20033;-85
2023/01/30 15:46:37;;;;;;;0.00;0.00;;;;;;;-145.06;100.00;53900.50;10377208;28;20108;-87
2023/01/30 15:51:38;;;;;;;0.00;0.00;;;;;;;-145.06;100.00;53874.16;10369475;28;20057;-87
2023/01/30 15:56:39;;;;;;;0.00;0.00;;;;;;;-145.06;100.00;53849.84;10363543;28;20022;-84
2023/01/30 16:01:40;;;;;;;0.00;0.00;;;;;;;-145.06;100.00;53872.13;10343125;28;20580;-83
2023/01/30 16:06:40;;;;;;;0.00;0.00;;;;;;;-145.06;100.00;53872.13;10356363;28;20082;-83
2023/01/30 16:11:41;;;;;;;0.00;0.00;;;;;;;-145.06;100.00;53855.94;10354608;28;20064;-85
2023/01/30 16:17:05;;;;;;;0.00;0.00;;;;;;;-145.06;100.00;53862.00;10362941;28;20030;-84
2023/01/30 16:22:15;;;;;;;0.00;0.00;;;;;;;-145.06;100.00;53890.38;10347856;28;20033;-83
2023/01/30 16:27:21;;;;;;;0.00;0.00;;;;;;;-145.06;100.00;53864.03;10357418;28;20026;-81
2023/01/30 16:32:30;;;;;;;0.00;0.00;;;;;;;-145.06;100.00;53886.31;10370528;28;20477;-81
2023/01/30 16:37:31;;;;;;;0.00;0.00;;;;;;;-145.06;100.00;53912.63;10366411;28;20021;-82
2023/01/30 16:42:31;;;;;;;0.00;0.00;;;;;;;-145.06;100.00;53868.09;10347289;28;20018;-81
2023/01/30 16:47:33;;;;;;;0.10;0.10;;;;;;;-145.06;100.00;53880.22;10325380;28;20025;-81
2023/01/30 16:52:40;;;;;;;0.00;0.00;;;;;;;-145.06;100.00;53868.09;10374812;28;20018;-81
2023/01/30 16:57:56;;;;;;;0.00;0.00;;;;;;;-145.06;100.00;53847.84;10330875;28;20476;-81
2023/01/30 17:02:59;;;;;;;0.00;0.00;;;;;;;-145.06;100.00;53888.34;10373813;28;20018;-81
2023/01/30 17:07:59;;;;;;;0.00;0.00;;;;;;;-145.06;100.00;53855.94;10372684;28;20097;-81
2023/01/30 17:13:00;;;;;;;0.00;0.00;;;;;;;-145.06;100.00;53831.63;10351798;28;20113;-81
2023/01/30 17:18:01;;;;;;;0.00;0.00;;;;;;;-145.06;100.00;53876.19;10369691;28;20026;-81
2023/01/30 17:23:06;;;;;;;0.00;0.00;;;;;;;-145.06;100.00;53870.09;10375706;28;20033;-81
2023/01/30 17:28:12;;;;;;;0.00;0.00;;;;;;;-145.06;100.00;53868.09;10366019;28;20018;-81
2023/01/30 17:33:12;;;;;;;0.00;0.00;;;;;;;-145.06;100.00;53898.47;10383624;28;20033;-82
2023/01/30 17:38:12;;;;;;;0.00;0.00;;;;;;;-145.06;100.00;53862.00;10374337;28;20029;-81
2023/01/30 17:43:13;;;;;;;0.00;0.00;;;;;;;-145.06;100.00;53898.47;10355225;28;20053;-81
2023/01/30 17:48:13;;;;;;;0.00;0.00;;;;;;;-145.06;100.00;53882.25;10338886;28;20030;-82
2023/01/30 17:53:14;;;;;;;0.00;0.00;;;;;;;-145.06;100.00;53825.56;10324112;28;20448;-81
2023/01/30 17:58:18;;;;;;;0.00;0.00;;;;;;;-145.06;100.00;53831.63;10352378;28;20033;-81
2023/01/30 18:03:18;;;;;;;0.00;0.00;;;;;;;-145.06;100.00;53888.34;10361072;28;20392;-81
2023/01/30 18:08:18;;;;;;;0.00;0.00;;;;;;;-145.06;100.00;53878.22;10373331;28;20034;-81
2023/01/30 18:13:19;;;;;;;0.00;0.00;;;;;;;-145.06;100.00;53888.34;10365015;28;20303;-81
2023/01/30 18:18:19;;;;;;;0.00;0.00;;;;;;;-145.06;100.00;53870.09;10328737;28;20156;-81
2023/01/30 18:23:19;;;;;;;0.05;0.05;;;;;;;-145.06;100.00;53851.88;10357231;28;20033;-80
2023/01/30 18:28:20;;;;;;;0.00;0.00;;;;;;;-145.06;100.00;53890.38;10366430;28;20026;-81
2023/01/30 18:33:20;;;;;;;0.00;0.00;;;;;;;-145.06;100.00;53896.44;10363432;28;20040;-81
2023/01/30 18:38:20;;;;;;;0.20;0.20;;;;;;;-145.06;100.00;53831.63;10346211;28;20057;-81
2023/01/30 18:43:21;;;;;;;0.10;0.10;;;;;;;-145.06;100.00;53866.06;10369246;28;20052;-81
2023/01/30 18:48:21;;;;;;;0.00;0.00;;;;;;;-145.06;100.00;53872.13;10345321;28;20269;-82
2023/01/30 18:53:21;;;;;;;0.00;0.00;;;;;;;-145.06;100.00;53900.50;10375169;28;20034;-81
2023/01/30 18:58:22;;;;;;;0.00;0.00;;;;;;;-145.06;100.00;53862.00;10378252;28;20072;-81
2023/01/30 19:03:23;;;;;;;0.00;0.00;;;;;;;-145.06;100.00;53876.19;10361512;28;20059;-81
2023/01/30 19:08:24;;;;;;;0.00;0.00;;;;;;;-145.06;100.00;53886.31;10376906;28;20065;-80
2023/01/30 19:13:35;;;;;;;0.00;0.00;;;;;;;-145.06;100.00;53868.09;10350591;28;20033;-80
2023/01/30 19:18:35;;;;;;;0.00;0.00;;;;;;;-145.06;100.00;53902.50;10381854;28;20035;-81
2023/01/30 19:23:36;;;;;;;0.00;0.00;;;;;;;-145.06;100.00;53876.19;10379559;28;20079;-82
2023/01/30 19:28:36;;;;;;;0.00;0.00;;;;;;;-145.06;100.00;53880.22;10338636;28;20113;-82
2023/01/30 19:33:37;;;;;;;0.00;0.00;;;;;;;-145.06;100.00;53849.84;10331620;28;20505;-79
2023/01/30 19:38:37;;;;;;;0.00;0.00;;;;;;;-145.06;100.00;53843.78;10317376;28;20018;-80
2023/01/30 19:43:38;;;;;;;0.00;0.00;;;;;;;-145.06;100.00;53922.75;10347807;28;20053;-80
2023/01/30 19:48:40;;;;;;;0.00;0.00;;;;;;;-145.06;100.00;53876.19;10333764;28;20468;-79
2023/01/30 19:53:42;;;;;;;0.00;0.00;;;;;;;-145.06;100.00;53872.13;10323553;28;20021;-79
2023/01/30 19:58:42;;;;;;;0.00;0.00;;;;;;;-145.06;100.00;53866.06;10363370;28;20018;-79
2023/01/30 20:03:43;;;;;;;0.00;0.00;;;;;;;-145.06;100.00;53882.25;10373194;28;20508;-80
2023/01/30 20:08:44;;;;;;;0.00;0.00;;;;;;;-145.06;100.00;53851.88;10329501;28;20014;-79
2023/01/30 20:13:45;;;;;;;0.00;0.00;;;;;;;-145.06;100.00;53896.44;10370392;28;20029;-80
2023/01/30 20:18:47;;;;;;;0.00;0.00;;;;;;;-145.06;100.00;53870.09;10372818;28;20488;-79
2023/01/30 20:23:47;;;;;;;0.00;0.00;;;;;;;-145.06;100.00;53892.38;10355204;28;20261;-79
2023/01/30 20:28:48;;;;;;;0.00;0.00;;;;;;;-145.06;100.00;53829.59;10371773;28;20026;-79
2023/01/30 20:33:49;;;;;;;0.00;0.00;;;;;;;-145.06;100.00;53876.19;10358338;28;20105;-79
2023/01/30 20:38:51;;;;;;;0.00;0.00;;;;;;;-145.06;100.00;53868.09;10334994;28;20101;-79
2023/01/30 20:43:59;;;;;;;0.00;0.00;;;;;;;-145.06;100.00;53845.81;10313816;28;20019;-79
2023/01/30 20:49:00;;;;;;;0.00;0.00;;;;;;;-145.06;100.00;53884.28;10332121;28;20015;-79
2023/01/30 20:54:03;;;;;;;0.00;0.00;;;;;;;-145.06;100.00;53866.06;10346867;28;20026;-79
2023/01/30 20:59:06;;;;;;;0.00;0.00;;;;;;;-145.06;100.00;53837.72;10368690;28;20022;-79
2023/01/30 21:04:08;;;;;;;0.00;0.00;;;;;;;-145.06;100.00;53890.38;10367809;28;20101;-79
2023/01/30 21:09:14;;;;;;;0.00;0.00;;;;;;;-145.06;100.00;53853.91;10351957;28;20014;-79
2023/01/30 21:14:15;;;;;;;0.00;0.00;;;;;;;-145.06;100.00;53853.91;10336064;28;20223;-79
